Time;durP1;ratioP1;P1;durP2;ratioP2;P2;SDS_P1;SDS_P2;PMS_P1;PMS_P2;Temp;Humidity;BMP_temperature;BMP_pressure;BME280_temperature;BME280_humidity;BME280_pressure;Samples;Min_cycle;Max_cycle;Signal;HPM_P1;HPM_P2
2021/10/31 00:00:30;;;;;;;12.98;7.03;;;;;;;10.42;92.48;100540.03;5055809;28;20055;-70
2021/10/31 00:02:55;;;;;;;15.75;6.72;;;;;;;10.34;92.75;100537.59;5055433;28;20017;-70
2021/10/31 00:05:20;;;;;;;19.13;7.43;;;;;;;10.29;92.95;100545.91;5037527;28;20021;-70
2021/10/31 00:07:46;;;;;;;13.80;7.22;;;;;;;10.29;92.90;100548.50;5037566;28;20032;-70
2021/10/31 00:10:11;;;;;;;18.83;8.25;;;;;;;10.31;92.60;100553.47;5055283;28;20048;-70
2021/10/31 00:12:36;;;;;;;20.95;7.65;;;;;;;10.31;92.82;100543.16;5055316;28;20029;-70
2021/10/31 00:15:03;;;;;;;19.33;7.50;;;;;;;10.27;92.39;100545.31;5054963;28;20360;-70
2021/10/31 00:17:28;;;;;;;20.30;7.22;;;;;;;10.29;92.56;100543.31;5055205;28;20402;-70
2021/10/31 00:19:54;;;;;;;13.35;7.32;;;;;;;10.27;92.53;100554.84;5055053;28;20025;-70
2021/10/31 00:22:19;;;;;;;15.55;7.13;;;;;;;10.29;92.27;100558.03;5055649;28;20037;-70
2021/10/31 00:24:45;;;;;;;17.30;6.97;;;;;;;10.26;92.52;100561.75;5055060;28;20067;-70
2021/10/31 00:27:10;;;;;;;16.70;6.90;;;;;;;10.26;92.81;100558.38;5054981;28;20108;-70
2021/10/31 00:29:36;;;;;;;19.73;7.90;;;;;;;10.16;92.56;100546.63;5054955;28;20021;-70
2021/10/31 00:32:01;;;;;;;14.63;6.75;;;;;;;10.27;92.34;100560.81;5037015;28;20051;-70
2021/10/31 00:34:26;;;;;;;21.27;7.60;;;;;;;10.24;92.52;100563.75;5054782;28;20029;-70
2021/10/31 00:36:51;;;;;;;17.50;7.45;;;;;;;10.22;92.69;100559.75;5055175;28;20025;-71
2021/10/31 00:39:17;;;;;;;19.85;7.80;;;;;;;10.09;92.92;100547.56;5054794;28;20509;-71
2021/10/31 00:41:42;;;;;;;23.40;7.28;;;;;;;10.19;92.83;100560.13;5036809;28;20032;-70
2021/10/31 00:44:08;;;;;;;15.38;7.72;;;;;;;10.21;92.69;100560.72;5054678;28;20021;-71
2021/10/31 00:46:33;;;;;;;17.02;7.43;;;;;;;10.18;92.78;100564.47;5035726;28;20024;-70
2021/10/31 00:48:58;;;;;;;14.05;7.85;;;;;;;10.11;92.79;100568.81;5054539;28;20025;-70
2021/10/31 00:51:27;;;;;;;18.30;7.80;;;;;;;10.08;92.99;100562.25;5036648;28;20023;-70
2021/10/31 00:53:55;;;;;;;17.38;7.80;;;;;;;10.01;93.38;100560.59;5036664;28;20029;-70
2021/10/31 00:56:23;;;;;;;15.77;7.85;;;;;;;10.11;93.08;100566.25;5054518;28;20078;-70
2021/10/31 00:58:48;;;;;;;18.83;8.48;;;;;;;10.06;93.48;100568.59;5054163;28;20418;-71
2021/10/31 01:01:13;;;;;;;14.35;7.70;;;;;;;10.05;93.49;100554.09;5054357;28;20032;-70
2021/10/31 01:03:40;;;;;;;16.33;8.27;;;;;;;10.09;92.93;100570.78;5036417;28;20032;-70
2021/10/31 01:06:28;;;;;;;19.90;7.88;;;;;;;10.00;93.48;100566.75;5036433;28;20115;-70
2021/10/31 01:09:09;;;;;;;21.88;8.43;;;;;;;10.13;93.68;100572.81;5054474;28;20074;-70
2021/10/31 01:11:54;;;;;;;18.30;8.48;;;;;;;10.08;93.08;100580.31;5036281;28;20037;-70
2021/10/31 01:14:46;;;;;;;14.05;8.40;;;;;;;10.06;92.89;100574.53;5036265;28;20119;-70
2021/10/31 01:17:35;;;;;;;17.75;8.15;;;;;;;10.04;93.47;100579.13;5054380;28;20032;-70
2021/10/31 01:20:13;;;;;;;17.63;8.63;;;;;;;9.99;93.47;100591.78;5035924;28;20013;-70
2021/10/31 01:23:01;;;;;;;24.92;8.48;;;;;;;10.00;93.57;100590.78;5036075;28;20115;-70
2021/10/31 01:26:01;;;;;;;20.23;9.13;;;;;;;9.97;93.37;100593.75;5054231;28;20017;-70
2021/10/31 01:28:58;;;;;;;19.27;8.88;;;;;;;9.96;93.38;100599.91;5053870;28;20468;-70
2021/10/31 01:31:49;;;;;;;22.58;9.10;;;;;;;9.90;93.63;100592.91;5054152;28;20025;-70
2021/10/31 01:34:23;;;;;;;17.67;8.98;;;;;;;9.89;93.72;100584.34;5053799;28;20072;-70
2021/10/31 01:37:04;;;;;;;27.70;10.02;;;;;;;9.86;93.93;100581.34;5053989;28;20067;-70
2021/10/31 01:39:42;;;;;;;21.67;10.10;;;;;;;9.87;93.87;100582.97;5053695;28;20095;-71
2021/10/31 01:42:22;;;;;;;21.83;10.40;;;;;;;9.82;93.69;100580.94;5053637;28;20091;-70
2021/10/31 01:44:54;;;;;;;23.23;10.07;;;;;;;9.82;93.78;100568.03;5053620;28;20021;-71
2021/10/31 01:47:25;;;;;;;21.27;11.23;;;;;;;9.81;93.87;100565.63;5053784;28;20560;-70
2021/10/31 01:50:14;;;;;;;21.60;11.35;;;;;;;9.79;93.92;100570.97;5053787;28;20021;-70
2021/10/31 01:52:54;;;;;;;27.67;11.63;;;;;;;9.73;94.22;100576.88;5053502;28;20383;-70
2021/10/31 01:55:24;;;;;;;22.25;11.95;;;;;;;9.69;94.25;100571.28;5035702;28;20171;-70
2021/10/31 01:57:54;;;;;;;34.17;13.13;;;;;;;9.71;94.54;100573.69;5053373;28;20044;-70
2021/10/31 02:00:19;;;;;;;22.35;13.25;;;;;;;9.65;94.48;100577.81;5053312;28;20035;-70
2021/10/31 02:02:46;;;;;;;25.20;12.95;;;;;;;9.62;94.47;100577.38;5053306;28;20100;-70
2021/10/31 02:05:15;;;;;;;28.05;13.27;;;;;;;9.62;94.52;100583.34;5053262;28;20040;-72
2021/10/31 02:07:45;;;;;;;24.40;14.10;;;;;;;9.55;94.58;100579.09;5053199;28;20024;-70
2021/10/31 02:10:12;;;;;;;27.25;14.23;;;;;;;9.53;95.09;100579.28;5053797;28;20498;-70
2021/10/31 02:12:41;;;;;;;28.55;15.15;;;;;;;9.56;94.85;100578.13;5053173;28;20029;-70
2021/10/31 02:15:11;;;;;;;26.25;15.05;;;;;;;9.54;94.61;100577.50;5053149;28;20039;-70
2021/10/31 02:17:37;;;;;;;22.80;14.50;;;;;;;9.56;94.64;100573.75;5053178;28;20079;-70
2021/10/31 02:20:03;;;;;;;28.88;15.82;;;;;;;9.51;95.28;100583.03;5034972;28;20128;-70
2021/10/31 02:22:30;;;;;;;28.00;15.77;;;;;;;9.52;94.79;100582.03;5053450;28;20124;-70
2021/10/31 02:24:56;;;;;;;26.77;15.65;;;;;;;9.52;94.79;100582.03;5053132;28;20084;-70
2021/10/31 02:27:23;;;;;;;25.33;15.40;;;;;;;9.53;95.12;100583.66;5053044;28;20471;-70
2021/10/31 02:29:55;;;;;;;34.78;15.77;;;;;;;9.48;95.16;100577.25;5053000;28;20100;-70
2021/10/31 02:32:25;;;;;;;26.48;15.38;;;;;;;9.53;95.21;100579.28;5035172;28;20025;-70
2021/10/31 02:34:51;;;;;;;26.40;14.77;;;;;;;9.54;94.75;100577.50;5053200;28;20024;-72
2021/10/31 02:37:16;;;;;;;29.88;15.90;;;;;;;9.45;95.48;100585.38;5052992;28;20489;-71
2021/10/31 02:39:43;;;;;;;26.45;14.70;;;;;;;9.49;95.22;100578.88;5052887;28;20113;-71
2021/10/31 02:42:08;;;;;;;30.40;15.63;;;;;;;9.47;95.27;100580.03;5052844;28;20433;-71
2021/10/31 02:44:33;;;;;;;26.25;15.20;;;;;;;9.46;94.69;100578.41;5052911;28;20029;-71
2021/10/31 02:46:59;;;;;;;27.88;14.98;;;;;;;9.47;95.45;100587.78;5052902;28;20410;-71
2021/10/31 02:49:26;;;;;;;31.42;15.82;;;;;;;9.41;95.18;100571.25;5052808;28;20040;-72
2021/10/31 02:52:00;;;;;;;27.13;14.80;;;;;;;9.44;95.11;100585.56;5053109;28;20371;-71
2021/10/31 02:54:47;;;;;;;24.55;14.40;;;;;;;9.49;95.27;100584.03;5052885;28;20471;-71
2021/10/31 02:57:23;;;;;;;28.13;14.95;;;;;;;9.45;95.23;100587.94;5034853;28;20036;-71
2021/10/31 02:59:56;;;;;;;24.70;14.60;;;;;;;9.45;95.06;100580.19;5034822;28;20021;-71
2021/10/31 03:02:26;;;;;;;27.38;13.63;;;;;;;9.42;95.25;100583.16;5052746;28;20394;-69
2021/10/31 03:04:52;;;;;;;25.45;14.00;;;;;;;9.41;95.25;100567.88;5052696;28;20104;-69
2021/10/31 03:07:20;;;;;;;26.60;14.48;;;;;;;9.41;95.07;100568.66;5053183;28;20086;-70
2021/10/31 03:09:47;;;;;;;26.27;14.32;;;;;;;9.39;95.13;100565.47;5053147;28;20056;-70
2021/10/31 03:12:13;;;;;;;25.42;14.40;;;;;;;9.38;95.16;100560.47;5056894;28;20234;-70
2021/10/31 03:14:38;;;;;;;27.67;14.20;;;;;;;9.35;95.10;100560.84;5056324;28;20028;-70
2021/10/31 03:17:04;;;;;;;30.33;14.50;;;;;;;9.33;95.10;100568.78;5056285;28;20023;-70
2021/10/31 03:19:30;;;;;;;25.85;14.20;;;;;;;9.35;94.93;100563.44;5056203;28;20386;-70
2021/10/31 03:21:55;;;;;;;23.95;14.07;;;;;;;9.35;95.11;100563.44;5056153;28;20049;-69
2021/10/31 03:24:21;;;;;;;26.40;13.05;;;;;;;9.37;95.04;100558.88;5056158;28;20027;-70
2021/10/31 03:26:47;;;;;;;26.23;13.30;;;;;;;9.35;95.37;100566.00;5056149;28;20044;-69
2021/10/31 03:29:12;;;;;;;21.75;13.07;;;;;;;9.33;94.88;100568.78;5056218;28;20021;-70
2021/10/31 03:31:38;;;;;;;24.95;13.25;;;;;;;9.37;94.81;100569.22;5038207;28;20025;-70
2021/10/31 03:34:03;;;;;;;22.00;12.65;;;;;;;9.37;95.13;100564.06;5055966;28;20103;-70
2021/10/31 03:36:28;;;;;;;26.48;12.30;;;;;;;9.43;94.49;100569.25;5038169;28;20036;-70
2021/10/31 03:38:53;;;;;;;19.35;11.95;;;;;;;9.37;94.67;100564.06;5056113;28;20025;-70
2021/10/31 03:41:19;;;;;;;24.23;12.30;;;;;;;9.39;94.73;100565.47;5055869;28;20434;-70
2021/10/31 03:43:44;;;;;;;22.58;12.27;;;;;;;9.31;94.77;100565.59;5055745;28;20025;-70
2021/10/31 03:46:09;;;;;;;28.83;12.38;;;;;;;9.31;94.65;100564.78;5056011;28;20045;-70
2021/10/31 03:48:35;;;;;;;18.83;11.35;;;;;;;9.34;94.17;100570.38;5038893;28;20025;-71
2021/10/31 03:51:00;;;;;;;29.40;12.30;;;;;;;9.34;94.76;100567.00;5055792;28;20017;-71
2021/10/31 03:53:25;;;;;;;22.25;11.68;;;;;;;9.25;94.85;100571.47;5055708;28;20032;-71
2021/10/31 03:55:51;;;;;;;27.20;12.25;;;;;;;9.31;95.27;100563.00;5055745;28;20173;-72
2021/10/31 03:58:16;;;;;;;19.85;10.90;;;;;;;9.33;94.32;100563.63;5038310;28;20029;-71
2021/10/31 04:00:43;;;;;;;20.13;11.35;;;;;;;9.24;95.29;100562.94;5055487;28;20379;-71
2021/10/31 04:03:09;;;;;;;20.85;11.35;;;;;;;9.31;94.78;100563.00;5055505;28;20028;-71
2021/10/31 04:05:35;;;;;;;20.90;11.23;;;;;;;9.33;94.44;100560.25;5055399;28;20024;-71
2021/10/31 04:08:00;;;;;;;24.58;11.20;;;;;;;9.36;94.49;100568.41;5037411;28;20027;-71
2021/10/31 04:10:25;;;;;;;20.52;10.88;;;;;;;9.36;94.15;100557.31;5055394;28;20021;-72
2021/10/31 04:12:51;;;;;;;17.50;10.90;;;;;;;9.35;94.22;100558.28;5055333;28;20522;-71
2021/10/31 04:15:20;;;;;;;17.85;10.48;;;;;;;9.39;94.07;100560.31;5037391;28;20067;-71
2021/10/31 04:17:45;;;;;;;19.35;10.77;;;;;;;9.43;93.70;100563.31;5055146;28;20375;-71
2021/10/31 04:20:11;;;;;;;18.63;10.13;;;;;;;9.42;93.34;100557.34;5054968;28;20147;-71
2021/10/31 04:22:36;;;;;;;19.35;10.43;;;;;;;9.37;93.64;100553.72;5037129;28;20025;-71
2021/10/31 04:25:03;;;;;;;18.60;9.95;;;;;;;9.35;93.45;100559.09;5055103;28;20072;-71
2021/10/31 04:27:29;;;;;;;17.50;11.20;;;;;;;9.34;94.08;100556.69;5054975;28;20111;-71
2021/10/31 04:29:54;;;;;;;21.95;10.73;;;;;;;9.30;94.07;100556.25;5055141;28;20063;-71
2021/10/31 04:32:20;;;;;;;22.38;11.55;;;;;;;9.19;94.42;100556.75;5055524;28;20028;-71
2021/10/31 04:34:45;;;;;;;22.58;11.68;;;;;;;9.18;94.88;100552.56;5054886;28;20021;-71
2021/10/31 04:37:11;;;;;;;22.25;11.70;;;;;;;9.14;95.25;100554.69;5055187;28;20054;-71
2021/10/31 04:39:36;;;;;;;21.50;10.80;;;;;;;9.13;95.17;100545.38;5054747;28;20112;-71
2021/10/31 04:42:06;;;;;;;19.83;11.82;;;;;;;9.17;95.07;100538.88;5054638;28;20028;-71
2021/10/31 04:44:32;;;;;;;21.45;11.05;;;;;;;9.14;94.78;100538.44;5054735;28;20383;-71
2021/10/31 04:46:58;;;;;;;27.83;11.68;;;;;;;9.16;95.57;100541.63;5054709;28;20029;-71
2021/10/31 04:49:24;;;;;;;21.20;11.38;;;;;;;9.17;95.01;100549.19;5054730;28;20028;-71
2021/10/31 04:51:49;;;;;;;25.00;11.35;;;;;;;9.14;95.25;100553.91;5054635;28;20102;-71
2021/10/31 04:54:14;;;;;;;21.13;11.00;;;;;;;9.17;95.14;100551.75;5036649;28;20522;-71
2021/10/31 04:56:40;;;;;;;19.42;11.15;;;;;;;9.28;94.94;100547.91;5055292;28;20052;-71
2021/10/31 04:59:05;;;;;;;20.92;11.00;;;;;;;9.21;94.33;100547.06;5054438;28;20060;-71
2021/10/31 05:01:31;;;;;;;18.20;11.05;;;;;;;9.23;94.58;100547.66;5055126;28;20024;-71
2021/10/31 05:03:56;;;;;;;19.13;10.75;;;;;;;9.21;94.67;100545.25;5036473;28;20021;-71
2021/10/31 05:06:21;;;;;;;18.67;10.82;;;;;;;9.16;94.73;100546.78;5054333;28;20021;-71
2021/10/31 05:08:47;;;;;;;18.55;10.50;;;;;;;9.09;94.86;100548.50;5054281;28;20422;-71
2021/10/31 05:11:12;;;;;;;18.45;11.35;;;;;;;9.12;94.79;100542.97;5054215;28;20033;-71
2021/10/31 05:13:39;;;;;;;20.58;10.55;;;;;;;9.02;94.86;100540.69;5054131;28;20032;-71
2021/10/31 05:16:04;;;;;;;16.98;10.60;;;;;;;9.03;94.89;100531.97;5054315;28;20404;-71
2021/10/31 05:18:30;;;;;;;20.85;12.20;;;;;;;9.10;94.94;100538.00;5054248;28;20071;-71
2021/10/31 05:20:55;;;;;;;18.20;10.93;;;;;;;9.12;94.83;100527.50;5035968;28;20048;-71
2021/10/31 05:23:20;;;;;;;22.13;10.90;;;;;;;9.07;95.10;100522.13;5054227;28;20025;-71
2021/10/31 05:25:46;;;;;;;21.33;10.95;;;;;;;9.04;95.17;100525.84;5036026;28;20379;-71
2021/10/31 05:28:11;;;;;;;28.95;11.18;;;;;;;9.04;94.77;100524.06;5053897;28;20032;-71
2021/10/31 05:30:37;;;;;;;18.48;10.65;;;;;;;9.07;95.34;100529.84;5054348;28;20036;-72
2021/10/31 05:33:02;;;;;;;19.83;10.70;;;;;;;9.13;94.85;100518.81;5035227;28;20017;-71
2021/10/31 05:35:28;;;;;;;20.13;10.35;;;;;;;9.10;94.53;100514.00;5053695;28;20485;-71
2021/10/31 05:37:58;;;;;;;17.25;10.30;;;;;;;9.10;94.80;100525.13;5035779;28;20415;-71
2021/10/31 05:40:24;;;;;;;21.10;10.35;;;;;;;9.06;94.90;100523.09;5036836;28;20025;-70
2021/10/31 05:42:50;;;;;;;19.45;9.77;;;;;;;9.00;94.87;100501.41;5053467;28;20375;-70
2021/10/31 05:45:15;;;;;;;21.52;10.43;;;;;;;9.08;94.76;100515.97;5035655;28;20021;-70
2021/10/31 05:47:42;;;;;;;21.65;9.77;;;;;;;9.01;94.16;100503.81;5053367;28;20032;-70
2021/10/31 05:50:10;;;;;;;19.25;10.13;;;;;;;9.03;95.02;100509.59;5053394;28;20021;-70
2021/10/31 05:52:36;;;;;;;19.35;9.52;;;;;;;9.08;94.50;100506.44;5035618;28;20025;-71
2021/10/31 05:55:03;;;;;;;21.67;10.27;;;;;;;9.06;94.58;100500.69;5053451;28;20032;-71
2021/10/31 05:57:29;;;;;;;18.85;10.45;;;;;;;9.06;94.39;100497.31;5053385;28;20056;-71
2021/10/31 05:59:54;;;;;;;18.83;10.15;;;;;;;8.99;94.83;100510.13;5053342;28;20055;-71
2021/10/31 06:02:20;;;;;;;22.60;11.43;;;;;;;8.97;94.77;100504.34;5053289;28;20029;-71
2021/10/31 06:04:46;;;;;;;21.15;10.60;;;;;;;8.98;95.28;100495.66;5035506;28;20025;-71
2021/10/31 06:07:12;;;;;;;16.02;9.88;;;;;;;9.04;94.87;100494.94;5053790;28;20398;-71
2021/10/31 06:09:38;;;;;;;21.48;10.10;;;;;;;9.04;94.61;100487.97;5053191;28;20082;-71
2021/10/31 06:12:04;;;;;;;21.48;10.75;;;;;;;8.99;95.16;100487.72;5035308;28;20025;-71
2021/10/31 06:14:30;;;;;;;18.42;10.40;;;;;;;8.93;95.30;100477.38;5053551;28;20411;-72
2021/10/31 06:16:56;;;;;;;18.40;10.27;;;;;;;8.99;95.05;100480.00;5053238;28;20355;-71
2021/10/31 06:19:21;;;;;;;16.50;10.23;;;;;;;8.98;95.00;100472.47;5053083;28;20054;-71
2021/10/31 06:21:46;;;;;;;20.65;10.80;;;;;;;8.93;94.88;100465.28;5035100;28;20510;-71
2021/10/31 06:24:11;;;;;;;20.48;10.63;;;;;;;8.96;94.95;100467.47;5053164;28;20104;-70
2021/10/31 06:26:37;;;;;;;22.10;10.80;;;;;;;8.97;95.22;100463.91;5053145;28;20021;-70
2021/10/31 06:29:02;;;;;;;18.75;10.07;;;;;;;8.94;94.62;100466.84;5035196;28;20025;-70
2021/10/31 06:31:27;;;;;;;19.35;10.65;;;;;;;8.91;95.04;100462.06;5053537;28;20025;-70
2021/10/31 06:33:52;;;;;;;15.75;10.13;;;;;;;8.94;94.63;100469.44;5052942;28;20542;-70
2021/10/31 06:36:18;;;;;;;19.67;10.65;;;;;;;8.94;94.99;100458.34;5053001;28;20082;-71
2021/10/31 06:38:43;;;;;;;21.67;10.93;;;;;;;8.91;95.05;100459.50;5052933;28;20031;-71
2021/10/31 06:41:09;;;;;;;19.20;10.00;;;;;;;8.97;94.67;100458.75;5052852;28;20094;-71
2021/10/31 06:43:35;;;;;;;20.60;10.02;;;;;;;9.02;94.74;100453.84;5053129;28;20021;-71
2021/10/31 06:46:01;;;;;;;17.90;10.20;;;;;;;9.06;93.77;100466.38;5055430;28;20020;-71
2021/10/31 06:48:26;;;;;;;23.40;9.95;;;;;;;9.09;93.56;100464.25;5056930;28;20025;-71
2021/10/31 06:50:53;;;;;;;23.25;10.35;;;;;;;9.15;93.65;100444.63;5056807;28;20095;-71
2021/10/31 06:53:19;;;;;;;15.68;9.73;;;;;;;9.19;93.49;100441.50;5038811;28;20406;-71
2021/10/31 06:55:45;;;;;;;15.35;10.13;;;;;;;9.11;93.67;100451.16;5038888;28;20074;-70
2021/10/31 06:58:10;;;;;;;24.02;9.82;;;;;;;9.17;93.63;100440.91;5056981;28;20032;-70
2021/10/31 07:00:35;;;;;;;20.33;10.10;;;;;;;9.28;93.07;100437.03;5056660;28;20021;-71
2021/10/31 07:03:00;;;;;;;18.25;9.75;;;;;;;9.31;92.82;100441.81;5056583;28;20100;-71
2021/10/31 07:05:26;;;;;;;20.92;9.70;;;;;;;9.29;92.71;100442.97;5056744;28;20082;-70
2021/10/31 07:07:51;;;;;;;17.45;9.07;;;;;;;9.34;92.63;100443.22;5038673;28;20364;-70
2021/10/31 07:10:16;;;;;;;20.42;9.63;;;;;;;9.30;92.72;100442.00;5056465;28;20016;-70
2021/10/31 07:12:42;;;;;;;15.07;9.10;;;;;;;9.41;92.41;100426.81;5038402;28;20032;-70
2021/10/31 07:15:08;;;;;;;15.88;9.55;;;;;;;9.44;91.93;100430.81;5038487;28;20108;-70
2021/10/31 07:17:33;;;;;;;15.00;9.45;;;;;;;9.41;92.27;100420.88;5039472;28;20364;-70
2021/10/31 07:19:58;;;;;;;16.98;9.88;;;;;;;9.49;92.05;100436.19;5056973;28;20056;-70
2021/10/31 07:22:23;;;;;;;16.77;9.23;;;;;;;9.44;92.54;100426.44;5057049;28;20029;-70
2021/10/31 07:24:50;;;;;;;19.05;8.82;;;;;;;9.52;92.67;100411.78;5056192;28;20033;-70
2021/10/31 07:27:16;;;;;;;16.67;9.45;;;;;;;9.58;91.86;100413.63;5057326;28;20059;-70
2021/10/31 07:29:41;;;;;;;15.77;9.35;;;;;;;9.62;91.89;100407.91;5038344;28;20056;-70
2021/10/31 07:32:07;;;;;;;15.65;9.30;;;;;;;9.71;91.49;100399.00;5056160;28;20017;-71
2021/10/31 07:34:32;;;;;;;15.38;9.48;;;;;;;9.53;92.18;100388.41;5038273;28;20029;-71
2021/10/31 07:36:57;;;;;;;17.27;9.23;;;;;;;9.67;92.02;100397.03;5038072;28;20094;-71
2021/10/31 07:39:22;;;;;;;14.90;9.50;;;;;;;9.82;91.32;100410.59;5055876;28;20017;-71
2021/10/31 07:41:48;;;;;;;16.80;9.10;;;;;;;9.78;91.18;100414.56;5037770;28;20028;-71
2021/10/31 07:44:13;;;;;;;21.33;10.02;;;;;;;10.01;90.96;100401.38;5037959;28;20352;-71
2021/10/31 07:46:39;;;;;;;12.93;8.38;;;;;;;10.22;89.84;100395.28;5055762;28;20167;-71
2021/10/31 07:49:04;;;;;;;13.75;8.50;;;;;;;10.34;89.10;100395.53;5055936;28;20025;-71
2021/10/31 07:51:31;;;;;;;14.68;8.77;;;;;;;10.19;90.04;100400.84;5056000;28;20028;-71
2021/10/31 07:53:56;;;;;;;16.98;8.82;;;;;;;10.08;90.37;100398.81;5055838;28;20111;-71
2021/10/31 07:56:24;;;;;;;11.48;8.02;;;;;;;10.11;90.41;100395.84;5037337;28;20025;-71
2021/10/31 07:58:55;;;;;;;15.02;9.00;;;;;;;10.00;90.92;100401.53;5055379;28;20459;-71
2021/10/31 08:01:21;;;;;;;16.85;8.63;;;;;;;10.24;89.56;100398.47;5037939;28;20060;-71
2021/10/31 08:03:47;;;;;;;12.73;8.38;;;;;;;10.23;89.71;100396.84;5037620;28;20033;-71
2021/10/31 08:06:13;;;;;;;13.65;8.43;;;;;;;10.23;89.66;100396.06;5055918;28;20017;-70
2021/10/31 08:08:38;;;;;;;11.20;8.40;;;;;;;10.31;89.92;100408.84;5037398;28;20021;-71
2021/10/31 08:11:03;;;;;;;15.32;8.68;;;;;;;10.32;89.75;100407.84;5055331;28;20456;-71
2021/10/31 08:13:30;;;;;;;16.48;8.50;;;;;;;10.46;89.03;100406.09;5037452;28;20055;-70
2021/10/31 08:15:56;;;;;;;12.32;8.30;;;;;;;10.58;88.90;100399.38;5055255;28;20036;-71
2021/10/31 08:18:22;;;;;;;18.48;8.20;;;;;;;10.69;88.15;100396.22;5037326;28;20492;-71
2021/10/31 08:20:47;;;;;;;12.57;8.50;;;;;;;10.85;88.07;100397.63;5054998;28;20076;-71
2021/10/31 08:23:15;;;;;;;12.38;8.05;;;;;;;10.94;87.44;100400.81;5055135;28;20029;-71
2021/10/31 08:25:41;;;;;;;11.45;7.82;;;;;;;10.86;87.75;100396.63;5037310;28;20025;-70
2021/10/31 08:28:09;;;;;;;13.98;7.78;;;;;;;11.07;87.24;100386.09;5055049;28;20028;-71
2021/10/31 08:30:35;;;;;;;11.52;7.32;;;;;;;11.13;86.99;100376.72;5054944;28;20528;-71
2021/10/31 08:33:07;;;;;;;15.27;7.78;;;;;;;11.23;86.69;100360.81;5054930;28;20017;-70
2021/10/31 08:35:34;;;;;;;10.80;7.72;;;;;;;11.42;86.00;100354.81;5054990;28;20384;-70
2021/10/31 08:37:59;;;;;;;10.18;8.23;;;;;;;11.44;85.93;100339.09;5054930;28;20091;-71
2021/10/31 08:40:24;;;;;;;11.05;7.70;;;;;;;11.62;84.84;100333.25;5036963;28;20487;-69
2021/10/31 08:42:50;;;;;;;11.85;7.03;;;;;;;11.60;85.40;100336.06;5036621;28;20033;-71
2021/10/31 08:45:15;;;;;;;11.32;7.57;;;;;;;11.69;84.46;100329.66;5054773;28;20112;-71
2021/10/31 08:47:41;;;;;;;10.63;7.10;;;;;;;12.22;83.33;100326.03;5054683;28;20104;-72
2021/10/31 08:50:08;;;;;;;9.50;6.90;;;;;;;12.74;81.18;100313.72;5037486;28;20075;-71
2021/10/31 08:52:34;;;;;;;10.10;6.53;;;;;;;13.94;76.27;100326.25;5036730;28;20028;-71
2021/10/31 08:54:59;;;;;;;8.73;6.32;;;;;;;15.24;70.69;100332.47;5036748;28;20145;-71
2021/10/31 08:57:24;;;;;;;8.48;5.40;;;;;;;15.60;68.89;100317.56;5054701;28;20034;-71
2021/10/31 08:59:49;;;;;;;9.07;5.50;;;;;;;15.53;69.45;100312.47;5036689;28;20029;-71
2021/10/31 09:02:15;;;;;;;7.95;5.10;;;;;;;16.23;66.95;100305.44;5054537;28;20478;-72
2021/10/31 09:04:40;;;;;;;8.27;5.10;;;;;;;15.93;67.68;100297.88;5054216;28;20021;-71
2021/10/31 09:07:07;;;;;;;7.35;5.10;;;;;;;15.17;70.65;100294.56;5053816;28;20025;-71
2021/10/31 09:09:32;;;;;;;8.45;5.15;;;;;;;15.23;70.95;100288.44;5035816;28;20056;-72
2021/10/31 09:11:58;;;;;;;9.10;5.07;;;;;;;15.45;69.15;100292.03;5036291;28;20060;-70
2021/10/31 09:14:23;;;;;;;8.48;5.10;;;;;;;16.18;67.23;100306.13;5036345;28;20098;-71
2021/10/31 09:16:48;;;;;;;9.38;5.20;;;;;;;14.95;70.87;100302.16;5036333;28;20033;-72
2021/10/31 09:19:15;;;;;;;9.60;5.25;;;;;;;15.08;70.81;100299.34;5036155;28;20407;-70
2021/10/31 09:21:41;;;;;;;6.78;4.85;;;;;;;14.86;71.55;100288.72;5054120;28;20128;-71
2021/10/31 09:24:07;;;;;;;8.15;4.80;;;;;;;16.14;67.91;100283.38;5054166;28;20055;-72
2021/10/31 09:26:32;;;;;;;9.18;4.75;;;;;;;16.39;66.14;100275.97;5053940;28;20100;-72
2021/10/31 09:28:58;;;;;;;7.00;4.57;;;;;;;15.77;68.32;100276.78;5053926;28;20418;-70
2021/10/31 09:31:23;;;;;;;6.40;4.45;;;;;;;15.48;69.71;100275.94;5036244;28;20115;-70
2021/10/31 09:33:48;;;;;;;9.05;5.00;;;;;;;14.36;73.37;100276.91;5053965;28;20043;-70
2021/10/31 09:36:14;;;;;;;9.00;5.03;;;;;;;13.44;76.98;100271.94;5053840;28;20021;-70
2021/10/31 09:38:39;;;;;;;7.18;5.00;;;;;;;14.46;73.83;100263.34;5053923;28;20029;-71
2021/10/31 09:41:05;;;;;;;7.72;4.88;;;;;;;14.10;74.32;100253.91;5053941;28;20033;-71
2021/10/31 09:43:36;;;;;;;7.97;5.15;;;;;;;13.44;77.57;100253.78;5053963;28;20031;-70
2021/10/31 09:46:03;;;;;;;7.32;5.10;;;;;;;13.48;77.23;100246.34;5054262;28;20078;-70
2021/10/31 09:48:31;;;;;;;9.27;5.20;;;;;;;13.55;77.25;100241.84;5053814;28;20103;-70
2021/10/31 09:50:57;;;;;;;6.63;4.63;;;;;;;12.84;79.98;100243.22;5036045;28;20021;-71
2021/10/31 09:53:22;;;;;;;10.98;4.75;;;;;;;12.63;80.63;100240.03;5036086;28;20360;-71
2021/10/31 09:55:49;;;;;;;6.55;4.78;;;;;;;12.59;81.23;100225.91;5053776;28;20055;-71
2021/10/31 09:58:23;;;;;;;8.75;5.10;;;;;;;12.47;81.46;100209.47;5035978;28;20053;-71
2021/10/31 10:00:52;;;;;;;9.10;5.18;;;;;;;12.63;80.66;100214.13;5053698;28;20032;-71
2021/10/31 10:06:18;;;;;;;7.25;4.50;;;;;;;13.33;78.75;100197.44;5053852;28;20044;-70
2021/10/31 10:09:10;;;;;;;7.45;4.30;;;;;;;13.93;75.46;100188.81;5035713;28;20451;-70
2021/10/31 10:11:42;;;;;;;15.02;4.15;;;;;;;13.75;76.32;100194.84;5053810;28;20467;-71
2021/10/31 10:14:11;;;;;;;6.18;4.10;;;;;;;14.14;75.67;100192.69;5053314;28;20035;-70
2021/10/31 10:16:37;;;;;;;6.95;3.90;;;;;;;14.62;73.67;100187.28;5053203;28;20035;-70
2021/10/31 10:19:26;;;;;;;6.03;3.95;;;;;;;14.98;71.93;100179.44;5035154;28;20052;-71
2021/10/31 10:22:05;;;;;;;6.82;3.58;;;;;;;15.41;69.84;100165.91;5035091;28;20466;-71
2021/10/31 10:24:32;;;;;;;8.57;3.47;;;;;;;15.57;69.59;100164.38;5053229;28;20527;-71
2021/10/31 10:27:03;;;;;;;4.18;3.08;;;;;;;15.39;69.44;100161.97;5053414;28;20051;-70
2021/10/31 10:29:30;;;;;;;7.43;3.20;;;;;;;14.54;72.26;100151.25;5053807;28;20534;-70
2021/10/31 10:32:01;;;;;;;6.20;3.35;;;;;;;14.32;73.53;100147.59;5053368;28;20360;-70
2021/10/31 10:34:35;;;;;;;7.20;3.20;;;;;;;14.87;72.18;100135.03;5053238;28;20103;-71
2021/10/31 10:37:14;;;;;;;6.32;3.20;;;;;;;14.36;73.40;100128.75;5054025;28;20020;-72
2021/10/31 10:39:41;;;;;;;6.85;3.33;;;;;;;14.43;73.22;100128.63;5035500;28;20483;-72
2021/10/31 10:42:07;;;;;;;6.57;3.08;;;;;;;14.28;73.77;100130.88;5053163;28;20104;-71
2021/10/31 10:44:38;;;;;;;5.97;3.25;;;;;;;14.36;74.55;100131.34;5053118;28;20430;-71
2021/10/31 10:47:09;;;;;;;4.63;3.08;;;;;;;14.15;75.27;100121.50;5053202;28;20079;-70
2021/10/31 10:49:38;;;;;;;3.67;2.70;;;;;;;13.90;75.65;100122.53;5053093;28;20086;-70
2021/10/31 10:52:04;;;;;;;5.30;2.88;;;;;;;13.69;76.36;100108.25;5052987;28;20410;-71
2021/10/31 10:54:29;;;;;;;6.32;2.75;;;;;;;13.67;76.37;100109.50;5035445;28;20025;-71
2021/10/31 10:57:00;;;;;;;5.88;2.70;;;;;;;13.67;76.43;100096.53;5052960;28;20032;-70
2021/10/31 10:59:26;;;;;;;7.10;2.60;;;;;;;13.59;76.85;100094.25;5052847;28;20029;-70
2021/10/31 11:02:08;;;;;;;5.30;2.40;;;;;;;13.24;78.09;100082.75;5052690;28;20152;-71
2021/10/31 11:04:35;;;;;;;4.68;2.42;;;;;;;13.12;78.34;100097.47;5035008;28;20067;-73
2021/10/31 11:07:02;;;;;;;7.32;2.83;;;;;;;13.20;78.16;100078.19;5034939;28;20021;-70
2021/10/31 11:09:35;;;;;;;3.17;2.30;;;;;;;13.32;77.75;100081.63;5035083;28;20036;-70
2021/10/31 11:12:30;;;;;;;3.95;2.55;;;;;;;13.19;78.87;100077.41;5053461;28;20418;-71
2021/10/31 11:15:17;;;;;;;5.05;2.63;;;;;;;13.27;78.45;100066.75;5053480;28;20048;-71
2021/10/31 11:17:44;;;;;;;3.67;2.40;;;;;;;13.34;78.23;100069.25;5052266;28;20045;-70
2021/10/31 11:20:13;;;;;;;3.45;2.30;;;;;;;13.25;78.67;100055.81;5034518;28;20044;-70
2021/10/31 11:22:49;;;;;;;4.85;2.30;;;;;;;13.10;79.41;100048.41;5052674;28;20452;-71
2021/10/31 11:25:18;;;;;;;5.15;2.28;;;;;;;13.24;79.06;100049.00;5052532;28;20067;-71